aviador You're here:

KEKX Decoded Metar

ELIZABETH in KY, USA
Report Time2018-01-22 01:55:00
UTC Time2018-01-22 02:05:26
Flight Rules vfr VFR
Wind160° at 04 kt
W.Decomp.*RWY 23: 1.6 kt HW 3.7 kt LCW
W.Rank160° ranks 19
Current wind is below 160° avg. (5.3)
Visibility9999 m
Phenomena:N/A
Clouds:Overcast 090 Hf
Expected CloudBase > 400 ft AGL from Temp-Dew spread
Ceiling9,000 ft
Temp11°C (ISA -3)
Dew Point10°C (94% RH)
AAT9.6°C
QNH1017 hPa
Density Alt489 ft
Elevation755 ft
Report Wrong Elevation
Raw Report
METAR KEKX 220155Z AUTO 16004KT 10SM OVC090 11/10 A3004 RMK AO2 T01140102=

Extra information for KEKX:More info

Airport Information Weather charts Add Link Nearby Venues Social comments

AIRNAV info for KEKX